createdAt,value
2019-04-06T00:01:04.864Z,7.10
2019-04-06T00:03:32.535Z,7.10
2019-04-06T00:06:00.210Z,7.10
2019-04-06T00:08:27.868Z,7.10
2019-04-06T00:10:55.525Z,7.10
2019-04-06T00:13:23.178Z,7.10
2019-04-06T00:15:50.867Z,7.20
2019-04-06T00:18:18.537Z,7.20
2019-04-06T00:20:46.201Z,7.20
2019-04-06T00:23:13.870Z,7.20
2019-04-06T00:25:44.654Z,7.20
2019-04-06T00:28:11.042Z,7.20
2019-04-06T00:30:51.423Z,7.20
2019-04-06T00:33:20.114Z,7.20
2019-04-06T00:35:47.762Z,7.30
2019-04-06T00:38:15.524Z,7.30
2019-04-06T00:40:43.171Z,7.30
2019-04-06T00:43:10.821Z,7.30
2019-04-06T00:45:38.538Z,7.30
2019-04-06T00:48:06.179Z,7.30
2019-04-06T00:50:33.842Z,7.30
2019-04-06T00:53:01.482Z,7.30
2019-04-06T00:55:29.280Z,7.30
2019-04-06T00:57:56.917Z,7.30
2019-04-06T01:00:24.569Z,7.30
2019-04-06T01:02:52.251Z,7.30
2019-04-06T01:05:19.902Z,7.30
2019-04-06T01:07:47.563Z,7.30
2019-04-06T01:10:15.474Z,7.30
2019-04-06T01:12:43.085Z,7.30
2019-04-06T01:15:10.824Z,7.40
2019-04-06T01:17:38.483Z,7.40
2019-04-06T01:20:06.850Z,7.40
2019-04-06T01:22:34.518Z,7.40
2019-04-06T01:25:02.154Z,7.40
2019-04-06T01:27:29.943Z,7.40
2019-04-06T01:29:57.598Z,7.40
2019-04-06T01:32:25.260Z,7.40
2019-04-06T01:34:52.925Z,7.40
2019-04-06T01:37:20.598Z,7.40
2019-04-06T01:39:48.245Z,7.40
2019-04-06T01:42:16.019Z,7.40
2019-04-06T01:44:43.670Z,7.40
2019-04-06T01:47:11.372Z,7.40
2019-04-06T01:49:39.088Z,7.40
2019-04-06T01:52:06.772Z,7.40
2019-04-06T01:54:34.494Z,7.40
2019-04-06T01:57:02.220Z,7.40
2019-04-06T01:59:29.829Z,7.50
2019-04-06T02:02:17.033Z,7.40
2019-04-06T02:04:44.681Z,7.50
2019-04-06T02:07:12.342Z,7.50
2019-04-06T02:09:40.136Z,7.50
2019-04-06T02:12:07.797Z,7.50
2019-04-06T02:14:35.418Z,7.50
2019-04-06T02:17:03.114Z,7.50
2019-04-06T02:19:30.723Z,7.50
2019-04-06T02:21:58.378Z,7.50
2019-04-06T02:24:26.036Z,7.50
2019-04-06T02:26:53.758Z,7.50
2019-04-06T02:29:21.472Z,7.60
2019-04-06T02:32:07.141Z,7.60
2019-04-06T02:35:02.871Z,7.60
2019-04-06T02:37:41.191Z,7.60
2019-04-06T02:40:27.092Z,7.60
2019-04-06T02:43:02.095Z,7.60
2019-04-06T02:45:29.728Z,7.60
2019-04-06T02:47:57.427Z,7.60
2019-04-06T02:50:25.059Z,7.60
2019-04-06T02:52:52.758Z,7.60
2019-04-06T02:55:20.419Z,7.70
2019-04-06T02:57:48.409Z,7.70
2019-04-06T03:00:16.579Z,7.70
2019-04-06T03:02:44.298Z,7.70
2019-04-06T03:05:12.075Z,7.70
2019-04-06T03:07:39.740Z,7.70
2019-04-06T03:10:07.493Z,7.70
2019-04-06T03:12:35.178Z,7.70
2019-04-06T03:15:03.083Z,7.70
2019-04-06T03:17:30.682Z,7.70
2019-04-06T03:19:58.364Z,7.70
2019-04-06T03:22:25.989Z,7.70
2019-04-06T03:24:53.652Z,7.70
2019-04-06T03:27:21.334Z,7.70
2019-04-06T03:29:57.596Z,7.70
2019-04-06T03:32:18.539Z,7.70
2019-04-06T03:34:46.299Z,7.70
2019-04-06T03:37:14.183Z,7.70
2019-04-06T03:39:41.819Z,7.70
2019-04-06T03:42:11.207Z,7.70
2019-04-06T03:44:38.981Z,7.70
2019-04-06T03:47:06.783Z,7.70
2019-04-06T03:49:34.440Z,7.70
2019-04-06T03:52:02.074Z,7.60
2019-04-06T03:54:29.756Z,7.60
2019-04-06T03:56:57.513Z,7.60
2019-04-06T03:59:25.349Z,7.60
2019-04-06T04:01:53.001Z,7.60
2019-04-06T04:04:20.930Z,7.60
2019-04-06T04:06:48.671Z,7.60
2019-04-06T04:09:16.312Z,7.60
2019-04-06T04:11:43.960Z,7.60
2019-04-06T04:14:11.755Z,7.60
2019-04-06T04:16:39.665Z,7.50
2019-04-06T04:19:07.355Z,7.50
2019-04-06T04:21:35.080Z,7.50
2019-04-06T04:24:02.822Z,7.50
2019-04-06T04:26:30.620Z,7.50
2019-04-06T04:28:58.254Z,7.50
2019-04-06T04:31:25.922Z,7.50
2019-04-06T04:33:53.561Z,7.50
2019-04-06T04:36:21.286Z,7.50
2019-04-06T04:38:48.895Z,7.40
2019-04-06T04:41:16.690Z,7.40
2019-04-06T04:43:44.449Z,7.40
2019-04-06T04:46:12.148Z,7.40
2019-04-06T04:48:39.783Z,7.40
2019-04-06T04:51:07.461Z,7.40
2019-04-06T04:53:35.141Z,7.40
2019-04-06T04:56:02.895Z,7.30
2019-04-06T04:58:30.537Z,7.30
2019-04-06T05:00:58.172Z,7.20
2019-04-06T05:03:25.851Z,7.10
2019-04-06T05:05:53.540Z,7.10
2019-04-06T05:08:21.209Z,7.00
2019-04-06T05:10:48.855Z,7.00
2019-04-06T05:13:16.528Z,6.90
2019-04-06T05:16:11.788Z,6.90
2019-04-06T05:18:39.714Z,6.90
2019-04-06T05:21:07.473Z,6.80
2019-04-06T05:23:35.134Z,6.80
2019-04-06T05:26:03.256Z,6.80
2019-04-06T05:28:30.852Z,6.70
2019-04-06T05:30:58.544Z,6.70
2019-04-06T05:33:26.149Z,6.70
2019-04-06T05:35:53.989Z,6.70
2019-04-06T05:38:21.598Z,6.70
2019-04-06T05:40:49.252Z,6.70
2019-04-06T05:43:16.951Z,6.70
2019-04-06T05:45:44.738Z,6.70
2019-04-06T05:48:12.404Z,6.70
2019-04-06T05:50:40.034Z,6.80
2019-04-06T05:53:07.910Z,6.90
2019-04-06T05:55:35.762Z,7.00
2019-04-06T05:58:04.809Z,7.10
2019-04-06T06:00:33.799Z,7.20
2019-04-06T06:03:01.481Z,7.30
2019-04-06T06:05:29.155Z,7.40
2019-04-06T06:07:56.983Z,7.50
2019-04-06T06:10:24.701Z,7.60
2019-04-06T06:12:52.338Z,7.70
2019-04-06T06:15:20.060Z,7.80
2019-04-06T06:17:48.042Z,7.90
2019-04-06T06:20:16.283Z,8.10
2019-04-06T06:22:44.035Z,8.30
2019-04-06T06:25:11.758Z,8.40
2019-04-06T06:27:39.420Z,8.50
2019-04-06T06:30:07.570Z,8.70
2019-04-06T06:32:35.297Z,8.80
2019-04-06T06:35:07.282Z,9.00
2019-04-06T06:37:35.998Z,9.20
2019-04-06T06:40:04.514Z,9.30
2019-04-06T06:42:32.441Z,9.40
2019-04-06T06:45:00.206Z,9.50
2019-04-06T06:47:28.158Z,9.60
2019-04-06T06:49:55.892Z,9.70
2019-04-06T06:52:23.523Z,9.70
2019-04-06T06:54:51.448Z,9.80
2019-04-06T06:57:19.059Z,10.00
2019-04-06T06:59:46.963Z,10.00
2019-04-06T07:02:14.831Z,10.10
2019-04-06T07:04:42.496Z,10.10
2019-04-06T07:07:10.122Z,10.30
2019-04-06T07:09:37.805Z,10.40
2019-04-06T07:12:05.490Z,10.30
2019-04-06T07:14:33.195Z,10.40
2019-04-06T07:17:01.003Z,10.50
2019-04-06T07:19:28.675Z,10.60
2019-04-06T07:21:56.342Z,10.70
2019-04-06T07:24:24.006Z,10.90
2019-04-06T07:26:52.096Z,11.10
2019-04-06T07:29:20.386Z,11.30
2019-04-06T07:31:48.169Z,11.20
2019-04-06T07:34:16.076Z,11.20
2019-04-06T07:36:44.225Z,11.20
2019-04-06T07:39:11.926Z,11.20
2019-04-06T07:41:39.578Z,11.30
2019-04-06T07:44:07.236Z,11.70
2019-04-06T07:46:34.983Z,11.90
2019-04-06T07:49:08.463Z,12.20
2019-04-06T07:51:32.155Z,12.50
2019-04-06T07:53:59.800Z,12.70
2019-04-06T07:56:27.540Z,13.00
2019-04-06T07:58:55.191Z,13.10
2019-04-06T08:01:22.817Z,13.10
2019-04-06T08:03:53.291Z,12.90
2019-04-06T08:06:21.024Z,13.00
2019-04-06T08:08:48.716Z,13.40
2019-04-06T08:11:16.312Z,13.50
2019-04-06T08:13:44.000Z,13.80
2019-04-06T08:16:11.667Z,13.60
2019-04-06T08:18:39.477Z,13.20
2019-04-06T08:21:07.138Z,13.20
2019-04-06T08:23:34.801Z,13.20
2019-04-06T08:26:02.418Z,13.30
2019-04-06T08:28:30.103Z,13.50
2019-04-06T08:30:57.758Z,13.80
2019-04-06T08:33:25.418Z,13.90
2019-04-06T08:35:53.105Z,14.10
2019-04-06T08:38:20.752Z,14.40
2019-04-06T08:40:48.726Z,14.60
2019-04-06T08:43:16.407Z,14.70
2019-04-06T08:45:44.193Z,14.80
2019-04-06T08:48:11.827Z,14.80
2019-04-06T08:50:39.466Z,14.90
2019-04-06T08:53:07.138Z,14.50
2019-04-06T08:55:34.770Z,14.60
2019-04-06T08:58:02.455Z,14.50
2019-04-06T09:00:30.172Z,14.50
2019-04-06T09:02:57.836Z,14.60
2019-04-06T09:05:25.542Z,14.90
2019-04-06T09:07:53.173Z,15.10
2019-04-06T09:10:20.803Z,15.10
2019-04-06T09:12:48.535Z,15.40
2019-04-06T09:15:16.729Z,15.60
2019-04-06T09:17:44.499Z,15.70
2019-04-06T09:20:12.365Z,15.60
2019-04-06T09:22:40.154Z,15.50
2019-04-06T09:25:08.015Z,15.60
2019-04-06T09:27:35.618Z,15.80
2019-04-06T09:30:04.004Z,15.90
2019-04-06T09:32:31.635Z,15.80
2019-04-06T09:34:59.395Z,16.00
2019-04-06T09:37:27.037Z,15.90
2019-04-06T09:39:54.699Z,16.00
2019-04-06T09:42:22.310Z,16.00
2019-04-06T09:45:21.739Z,16.00
2019-04-06T09:48:00.012Z,16.00
2019-04-06T09:50:45.605Z,16.20
2019-04-06T09:53:22.287Z,16.50
2019-04-06T09:56:08.060Z,16.80
2019-04-06T09:58:43.141Z,16.70
2019-04-06T10:01:38.003Z,16.80
2019-04-06T10:04:29.695Z,16.90
2019-04-06T10:07:31.707Z,16.90
2019-04-06T10:10:24.862Z,16.90
2019-04-06T10:13:17.958Z,17.20
2019-04-06T10:16:13.827Z,17.30
2019-04-06T10:18:52.327Z,17.40
2019-04-06T10:21:39.790Z,17.40
2019-04-06T10:24:26.929Z,17.20
2019-04-06T10:27:25.884Z,17.40
2019-04-06T10:30:08.851Z,17.60
2019-04-06T10:32:54.646Z,17.80
2019-04-06T10:35:50.729Z,17.60
2019-04-06T10:38:37.201Z,17.50
2019-04-06T10:41:17.867Z,17.50
2019-04-06T10:44:03.791Z,17.90
2019-04-06T10:46:56.623Z,18.10
2019-04-06T10:49:31.832Z,18.30
2019-04-06T10:52:17.883Z,18.20
2019-04-06T10:54:59.618Z,18.20
2019-04-06T10:57:35.931Z,18.10
2019-04-06T11:00:26.515Z,18.20
2019-04-06T11:03:28.720Z,18.30
2019-04-06T11:06:16.185Z,18.20
2019-04-06T11:08:56.446Z,18.40
2019-04-06T11:11:43.774Z,18.40
2019-04-06T11:14:34.066Z,18.60
2019-04-06T11:17:19.813Z,18.70
2019-04-06T11:19:55.049Z,18.70
2019-04-06T11:22:34.530Z,18.60
2019-04-06T11:25:24.565Z,18.60
2019-04-06T11:28:17.529Z,18.70
2019-04-06T11:31:10.286Z,18.70
2019-04-06T11:33:55.650Z,18.50
2019-04-06T11:36:38.273Z,18.50
2019-04-06T11:39:25.428Z,18.50
2019-04-06T11:42:11.082Z,18.60
2019-04-06T11:44:53.633Z,18.80
2019-04-06T11:47:27.406Z,18.70
2019-04-06T11:50:26.766Z,18.90
2019-04-06T11:53:22.696Z,19.00
2019-04-06T11:56:03.450Z,18.90
2019-04-06T11:59:05.708Z,18.90
2019-04-06T12:01:50.504Z,19.00
2019-04-06T12:04:37.603Z,18.90
2019-04-06T12:07:24.751Z,18.90
2019-04-06T12:10:06.459Z,18.90
2019-04-06T12:12:56.761Z,19.00
2019-04-06T12:15:33.998Z,19.30
2019-04-06T12:18:21.128Z,19.50
2019-04-06T12:21:08.865Z,19.60
2019-04-06T12:23:48.677Z,19.50
2019-04-06T12:26:34.034Z,19.60
2019-04-06T12:29:24.201Z,19.90
2019-04-06T12:32:21.435Z,19.80
2019-04-06T12:35:14.191Z,19.70
2019-04-06T12:37:54.475Z,19.80
2019-04-06T12:40:38.278Z,19.80
2019-04-06T12:43:24.286Z,19.80
2019-04-06T12:46:09.954Z,19.90
2019-04-06T12:48:57.079Z,19.80
2019-04-06T12:51:34.917Z,19.60
2019-04-06T12:54:20.592Z,19.60
2019-04-06T12:56:56.869Z,19.30
2019-04-06T12:59:39.140Z,19.30
2019-04-06T13:02:26.269Z,19.30
2019-04-06T13:05:13.427Z,19.30
2019-04-06T13:08:15.923Z,19.30
2019-04-06T13:10:56.424Z,19.30
2019-04-06T13:13:46.540Z,19.30
2019-04-06T13:16:42.283Z,19.40
2019-04-06T13:19:27.876Z,19.50
2019-04-06T13:22:32.817Z,19.60
2019-04-06T13:25:31.984Z,19.50
2019-04-06T13:28:05.951Z,19.50
2019-04-06T13:31:07.964Z,19.50
2019-04-06T13:34:13.289Z,19.40
2019-04-06T13:36:58.825Z,19.50
2019-04-06T13:39:43.710Z,19.50
2019-04-06T13:42:24.504Z,19.60
2019-04-06T13:45:20.506Z,19.60
2019-04-06T13:48:13.428Z,19.40
2019-04-06T13:50:47.227Z,19.50
2019-04-06T13:53:43.521Z,19.30
2019-04-06T13:56:30.794Z,19.40
2019-04-06T13:59:18.128Z,19.50
2019-04-06T14:01:56.148Z,19.50
2019-04-06T14:04:41.544Z,19.60
2019-04-06T14:07:31.757Z,19.60
2019-04-06T14:10:17.606Z,19.60
2019-04-06T14:13:16.896Z,19.70
2019-04-06T14:16:06.917Z,19.70
2019-04-06T14:18:54.452Z,19.60
2019-04-06T14:21:47.506Z,19.60
2019-04-06T14:24:22.977Z,19.60
2019-04-06T14:27:08.660Z,19.60
2019-04-06T14:29:50.674Z,19.70
2019-04-06T14:32:26.130Z,19.70
2019-04-06T14:35:11.507Z,19.70
2019-04-06T14:37:59.007Z,19.70
2019-04-06T14:40:46.166Z,19.70
2019-04-06T14:43:31.736Z,19.70
2019-04-06T14:46:27.902Z,19.60
2019-04-06T14:49:29.410Z,19.40
2019-04-06T14:52:03.685Z,19.40
2019-04-06T14:54:56.904Z,19.40
2019-04-06T14:57:52.806Z,19.30
2019-04-06T15:00:42.998Z,19.30
2019-04-06T15:03:36.021Z,19.30
2019-04-06T15:06:35.077Z,19.20
2019-04-06T15:09:28.961Z,19.10
2019-04-06T15:12:02.863Z,19.10
2019-04-06T15:14:58.824Z,19.10
2019-04-06T15:18:04.131Z,19.10
2019-04-06T15:21:06.341Z,19.00
2019-04-06T15:24:00.568Z,19.00
2019-04-06T15:26:34.392Z,19.10
2019-04-06T15:29:24.399Z,19.00
2019-04-06T15:32:17.634Z,19.00
2019-04-06T15:35:07.387Z,19.00
2019-04-06T15:38:12.716Z,18.90
2019-04-06T15:41:05.623Z,18.90
2019-04-06T15:43:55.766Z,19.00
2019-04-06T15:46:39.177Z,18.90
2019-04-06T15:49:26.537Z,18.90
2019-04-06T15:52:15.929Z,18.90
2019-04-06T15:54:53.409Z,18.90
2019-04-06T15:57:34.818Z,18.90
2019-04-06T16:00:18.906Z,18.80
2019-04-06T16:03:09.156Z,18.80
2019-04-06T16:05:50.684Z,18.70
2019-04-06T16:08:25.471Z,18.70
2019-04-06T16:11:11.188Z,18.60
2019-04-06T16:13:56.926Z,18.50
2019-04-06T16:16:49.951Z,18.50
2019-04-06T16:19:30.539Z,18.40
2019-04-06T16:22:10.539Z,18.40
2019-04-06T16:24:51.333Z,18.40
2019-04-06T16:27:38.784Z,18.30
2019-04-06T16:30:17.800Z,18.20
2019-04-06T16:33:09.087Z,18.20
2019-04-06T16:36:02.761Z,18.20
2019-04-06T16:38:49.825Z,18.10
2019-04-06T16:41:34.431Z,18.10
2019-04-06T16:44:20.346Z,18.10
2019-04-06T16:47:06.024Z,18.00
2019-04-06T16:49:53.386Z,18.00
2019-04-06T16:52:43.556Z,18.00
2019-04-06T16:55:31.259Z,18.00
2019-04-06T16:58:15.436Z,17.90
2019-04-06T17:01:01.000Z,17.90
2019-04-06T17:03:46.834Z,17.80
2019-04-06T17:06:46.245Z,17.80
2019-04-06T17:09:36.389Z,17.70
2019-04-06T17:12:29.338Z,17.60
2019-04-06T17:15:04.739Z,17.60
2019-04-06T17:17:44.185Z,17.60
2019-04-06T17:20:31.797Z,17.50
2019-04-06T17:23:07.882Z,17.40
2019-04-06T17:25:57.366Z,17.40
2019-04-06T17:28:47.283Z,17.30
2019-04-06T17:31:26.561Z,17.20
2019-04-06T17:34:25.841Z,17.10
2019-04-06T17:37:02.968Z,17.00
2019-04-06T17:39:48.526Z,16.80
2019-04-06T17:42:44.767Z,16.70
2019-04-06T17:45:37.897Z,16.60
2019-04-06T17:48:12.668Z,16.50
2019-04-06T17:50:58.341Z,16.40
2019-04-06T17:53:54.768Z,16.30
2019-04-06T17:56:40.229Z,16.20
2019-04-06T17:59:25.874Z,16.00
2019-04-06T18:02:25.125Z,15.90
2019-04-06T18:05:10.522Z,15.70
2019-04-06T18:07:56.195Z,15.60
2019-04-06T18:10:28.353Z,15.50
2019-04-06T18:13:17.051Z,15.30
2019-04-06T18:15:44.705Z,15.20
2019-04-06T18:18:12.827Z,15.10
2019-04-06T18:20:40.577Z,14.90
2019-04-06T18:23:08.612Z,14.80
2019-04-06T18:25:36.397Z,14.60
2019-04-06T18:28:04.145Z,14.50
2019-04-06T18:30:31.774Z,14.40
2019-04-06T18:33:09.410Z,14.30
2019-04-06T18:35:37.145Z,14.10
2019-04-06T18:38:27.082Z,14.00
2019-04-06T18:40:55.137Z,13.90
2019-04-06T18:43:23.261Z,13.80
2019-04-06T18:45:50.907Z,13.70
2019-04-06T18:48:18.573Z,13.60
2019-04-06T18:50:46.310Z,13.50
2019-04-06T18:53:13.967Z,13.40
2019-04-06T18:55:41.639Z,13.30
2019-04-06T18:58:12.541Z,13.20
2019-04-06T19:00:39.047Z,13.10
2019-04-06T19:03:14.718Z,13.10
2019-04-06T19:05:36.189Z,13.00
2019-04-06T19:08:04.208Z,12.90
2019-04-06T19:10:31.951Z,13.00
2019-04-06T19:12:59.623Z,12.80
2019-04-06T19:15:27.287Z,12.70
2019-04-06T19:17:55.027Z,12.60
2019-04-06T19:20:22.694Z,12.50
2019-04-06T19:22:51.082Z,12.40
2019-04-06T19:25:19.642Z,12.40
2019-04-06T19:27:47.369Z,12.30
2019-04-06T19:30:15.470Z,12.20
2019-04-06T19:32:43.063Z,12.10
2019-04-06T19:35:11.055Z,12.00
2019-04-06T19:37:38.717Z,12.00
2019-04-06T19:40:07.838Z,11.90
2019-04-06T19:42:35.624Z,11.80
2019-04-06T19:45:04.587Z,11.70
2019-04-06T19:47:32.362Z,11.60
2019-04-06T19:50:00.497Z,11.60
2019-04-06T19:52:28.375Z,11.50
2019-04-06T19:54:56.035Z,11.40
2019-04-06T19:57:23.852Z,11.40
2019-04-06T19:59:51.598Z,11.30
2019-04-06T20:02:22.278Z,11.30
2019-04-06T20:04:49.903Z,11.50
2019-04-06T20:07:17.604Z,11.10
2019-04-06T20:09:45.241Z,11.10
2019-04-06T20:12:12.996Z,11.00
2019-04-06T20:14:40.772Z,10.90
2019-04-06T20:17:08.628Z,10.90
2019-04-06T20:19:36.410Z,10.80
2019-04-06T20:22:04.312Z,10.80
2019-04-06T20:24:31.952Z,10.70
2019-04-06T20:26:59.616Z,10.70
2019-04-06T20:29:27.374Z,10.60
2019-04-06T20:31:55.207Z,10.60
2019-04-06T20:34:23.045Z,10.50
2019-04-06T20:36:51.103Z,10.50
2019-04-06T20:39:18.773Z,10.40
2019-04-06T20:41:46.505Z,10.40
2019-04-06T20:44:14.405Z,10.30
2019-04-06T20:46:42.130Z,10.30
2019-04-06T20:49:09.786Z,10.20
2019-04-06T20:51:37.925Z,10.10
2019-04-06T20:54:05.694Z,10.10
2019-04-06T20:56:34.224Z,10.00
2019-04-06T20:59:01.908Z,10.00
2019-04-06T21:01:30.103Z,9.90
2019-04-06T21:04:02.400Z,9.90
2019-04-06T21:06:27.354Z,9.90
2019-04-06T21:08:55.030Z,9.80
2019-04-06T21:11:23.202Z,9.80
2019-04-06T21:13:50.955Z,9.70
2019-04-06T21:16:18.627Z,9.70
2019-04-06T21:18:46.262Z,9.70
2019-04-06T21:21:14.375Z,9.60
2019-04-06T21:23:42.070Z,9.60
2019-04-06T21:26:10.856Z,9.60
2019-04-06T21:28:39.009Z,9.50
2019-04-06T21:31:06.744Z,9.50
2019-04-06T21:33:35.069Z,9.40
2019-04-06T21:36:03.251Z,9.40
2019-04-06T21:38:30.973Z,9.40
2019-04-06T21:40:58.591Z,9.30
2019-04-06T21:43:26.275Z,9.30
2019-04-06T21:45:54.331Z,9.20
2019-04-06T21:48:22.526Z,9.20
2019-04-06T21:50:50.189Z,9.10
2019-04-06T21:53:18.467Z,9.10
2019-04-06T21:55:46.226Z,9.00
2019-04-06T21:58:14.163Z,9.00
2019-04-06T22:00:50.047Z,9.00
2019-04-06T22:03:17.995Z,8.90
2019-04-06T22:05:45.668Z,8.90
2019-04-06T22:08:13.455Z,8.80
2019-04-06T22:10:41.112Z,8.80
2019-04-06T22:13:09.360Z,8.80
2019-04-06T22:15:37.516Z,8.70
2019-04-06T22:18:06.127Z,8.70
2019-04-06T22:20:34.331Z,8.70
2019-04-06T22:23:02.071Z,8.60
2019-04-06T22:25:29.997Z,8.60
2019-04-06T22:27:57.748Z,8.60
2019-04-06T22:30:25.881Z,8.50
2019-04-06T22:32:53.542Z,8.50
2019-04-06T22:35:21.372Z,8.40
2019-04-06T22:37:49.040Z,8.40
2019-04-06T22:40:16.679Z,8.40
2019-04-06T22:42:45.110Z,8.30
2019-04-06T22:45:14.800Z,8.30
2019-04-06T22:47:42.526Z,8.30
2019-04-06T22:50:10.695Z,8.20
2019-04-06T22:52:38.384Z,8.20
2019-04-06T22:55:07.360Z,8.20
2019-04-06T22:57:35.094Z,8.10
2019-04-06T23:00:04.501Z,8.10
2019-04-06T23:02:38.647Z,8.00
2019-04-06T23:05:17.277Z,8.00
2019-04-06T23:07:45.121Z,7.90
2019-04-06T23:10:13.460Z,7.80
2019-04-06T23:12:41.616Z,7.80
2019-04-06T23:15:09.997Z,7.80
2019-04-06T23:17:37.648Z,7.80
2019-04-06T23:20:05.905Z,7.80
2019-04-06T23:22:33.575Z,7.80
2019-04-06T23:25:01.908Z,7.80
2019-04-06T23:27:29.673Z,7.80
2019-04-06T23:29:57.319Z,7.70
2019-04-06T23:32:25.036Z,7.70
2019-04-06T23:34:59.917Z,7.60
2019-04-06T23:37:22.252Z,7.60
2019-04-06T23:39:50.420Z,7.60
2019-04-06T23:42:18.193Z,7.60
2019-04-06T23:44:45.843Z,7.60
2019-04-06T23:47:13.745Z,7.60
2019-04-06T23:49:41.868Z,7.60
2019-04-06T23:52:09.502Z,7.60
2019-04-06T23:54:37.133Z,7.60
2019-04-06T23:57:04.854Z,7.70
2019-04-06T23:59:32.682Z,7.60
